Time;durP1;ratioP1;P1;durP2;ratioP2;P2;SDS_P1;SDS_P2;PMS_P1;PMS_P2;Temp;Humidity;BMP_temperature;BMP_pressure;BME280_temperature;BME280_humidity;BME280_pressure;Samples;Min_cycle;Max_cycle;Signal;HPM_P1;HPM_P2
2023/05/03 00:04:32;;;;;;;1.38;0.30;;;8.60;99.90;;;;;;25945361;22;20003;-60
2023/05/03 00:14:33;;;;;;;0.40;0.20;;;8.70;99.90;;;;;;25970091;22;20108;-49
2023/05/03 00:24:35;;;;;;;1.98;0.30;;;8.80;99.90;;;;;;25970331;22;20061;-61
2023/05/03 00:34:39;;;;;;;0.30;0.20;;;8.80;99.90;;;;;;25970135;22;20007;-50
2023/05/03 00:44:41;;;;;;;0.20;0.20;;;8.80;99.90;;;;;;25943975;22;20109;-51
2023/05/03 00:54:43;;;;;;;0.73;0.30;;;8.70;99.90;;;;;;25943410;22;20020;-52
2023/05/03 01:04:44;;;;;;;0.52;0.38;;;8.60;99.90;;;;;;25968792;22;20007;-52
2023/05/03 01:15:04;;;;;;;0.60;0.30;;;8.60;99.90;;;;;;25968308;22;20003;-49
2023/05/03 01:25:14;;;;;;;0.45;0.32;;;8.50;99.90;;;;;;26010339;22;20000;-60
2023/05/03 01:35:22;;;;;;;0.47;0.30;;;8.40;99.90;;;;;;25982600;22;20497;-60
2023/05/03 01:45:25;;;;;;;0.50;0.40;;;8.40;99.90;;;;;;25984699;22;20007;-60
2023/05/03 01:55:27;;;;;;;0.35;0.30;;;8.30;99.90;;;;;;25914535;22;20003;-49
2023/05/03 02:05:28;;;;;;;0.25;0.22;;;8.30;99.90;;;;;;25967777;22;20007;-51
2023/05/03 02:15:30;;;;;;;0.40;0.32;;;8.30;99.90;;;;;;25966378;22;20004;-52
2023/05/03 02:25:32;;;;;;;0.60;0.40;;;8.20;99.90;;;;;;25965818;22;20004;-54
2023/05/03 02:35:34;;;;;;;2.15;0.40;;;8.30;99.90;;;;;;25938146;22;20007;-60
2023/05/03 02:45:35;;;;;;;0.73;0.43;;;8.30;99.90;;;;;;25964764;22;20014;-57
2023/05/03 02:55:38;;;;;;;0.80;0.50;;;8.20;99.90;;;;;;25964808;22;20007;-51
2023/05/03 03:05:39;;;;;;;0.80;0.50;;;8.10;99.90;;;;;;25965032;22;20014;-60
2023/05/03 03:15:41;;;;;;;0.75;0.43;;;8.10;99.90;;;;;;25964220;22;20007;-53
2023/05/03 03:25:43;;;;;;;0.20;0.20;;;8.20;99.90;;;;;;25937244;22;20031;-49
2023/05/03 03:35:44;;;;;;;0.50;0.40;;;8.00;99.90;;;;;;25937123;22;20500;-52
2023/05/03 03:45:47;;;;;;;0.80;0.60;;;7.80;99.90;;;;;;25939274;22;20094;-53
2023/05/03 03:55:50;;;;;;;0.68;0.40;;;7.80;99.90;;;;;;25944354;22;20003;-58
2023/05/03 04:05:53;;;;;;;1.67;0.50;;;7.90;99.90;;;;;;25944221;22;20060;-50
2023/05/03 04:27:57;;;;;;;0.50;0.50;;;8.10;99.90;;;;;;26012339;22;20016;-61
2023/05/03 04:38:02;;;;;;;0.75;0.52;;;8.00;99.90;;;;;;25918195;22;20061;-60
2023/05/03 04:48:05;;;;;;;0.70;0.50;;;8.10;99.90;;;;;;25963489;22;20019;-54
2023/05/03 04:58:08;;;;;;;1.08;0.70;;;8.20;99.90;;;;;;25940868;22;20003;-60
2023/05/03 05:08:11;;;;;;;0.95;0.50;;;8.30;99.90;;;;;;25916758;22;20064;-60
2023/05/03 05:18:18;;;;;;;1.05;0.70;;;8.30;99.90;;;;;;25982453;22;20010;-60
2023/05/03 05:28:22;;;;;;;0.68;0.55;;;8.50;99.90;;;;;;25940948;22;20008;-52
2023/05/03 05:38:24;;;;;;;1.05;0.60;;;8.70;99.90;;;;;;25940620;22;20011;-54
2023/05/03 05:48:29;;;;;;;0.75;0.60;;;8.90;99.90;;;;;;25938665;22;20366;-51
2023/05/03 05:58:32;;;;;;;0.52;0.50;;;8.70;99.90;;;;;;25940239;22;20000;-61
2023/05/03 06:08:33;;;;;;;0.90;0.60;;;8.60;99.90;;;;;;25937187;22;20003;-49
2023/05/03 06:18:35;;;;;;;1.35;0.60;;;8.90;99.90;;;;;;25912115;22;20011;-51
2023/05/03 06:28:37;;;;;;;0.93;0.60;;;8.90;99.90;;;;;;25964812;22;20328;-51
2023/05/03 06:38:39;;;;;;;0.70;0.60;;;10.20;99.90;;;;;;25936271;22;20004;-61
2023/05/03 06:48:41;;;;;;;1.17;0.70;;;10.40;99.30;;;;;;25963679;22;20004;-50
2023/05/03 06:58:43;;;;;;;1.13;0.73;;;10.70;98.10;;;;;;25963413;22;20007;-51
2023/05/03 07:08:44;;;;;;;0.98;0.70;;;10.50;98.00;;;;;;25937962;22;20004;-48
2023/05/03 07:18:47;;;;;;;0.80;0.60;;;10.60;97.70;;;;;;25967187;22;20050;-61
2023/05/03 07:28:49;;;;;;;1.70;0.90;;;11.30;98.10;;;;;;25971477;22;20061;-51
2023/05/03 07:38:50;;;;;;;1.85;0.70;;;11.10;97.90;;;;;;25970781;22;20007;-62
2023/05/03 07:48:52;;;;;;;0.57;0.47;;;11.30;96.60;;;;;;25972135;22;20331;-60
2023/05/03 07:58:54;;;;;;;0.60;0.60;;;11.90;97.80;;;;;;25970831;22;20383;-60
2023/05/03 08:08:55;;;;;;;0.80;0.60;;;12.50;96.30;;;;;;25971962;22;20438;-49
2023/05/03 08:18:57;;;;;;;1.90;0.60;;;12.90;96.00;;;;;;25969955;22;20004;-48
2023/05/03 08:28:59;;;;;;;0.63;0.50;;;12.80;96.90;;;;;;25967623;22;20007;-50
2023/05/03 08:39:05;;;;;;;0.65;0.60;;;13.30;95.30;;;;;;25969434;22;20073;-50
2023/05/03 08:49:07;;;;;;;1.25;1.00;;;14.10;93.70;;;;;;25967717;22;20077;-50
2023/05/03 08:59:12;;;;;;;3.10;0.90;;;14.80;99.90;;;;;;25968450;22;20003;-61
2023/05/03 09:09:14;;;;;;;1.25;1.10;;;16.40;99.90;;;;;;25964982;22;20011;-60
2023/05/03 09:19:16;;;;;;;1.75;1.65;;;17.70;99.50;;;;;;25967411;22;20382;-61
2023/05/03 09:29:28;;;;;;;1.20;1.08;;;18.30;97.80;;;;;;25966642;22;20385;-60
2023/05/03 09:39:31;;;;;;;1.55;1.30;;;18.70;98.70;;;;;;25966353;22;20003;-61
2023/05/03 09:49:33;;;;;;;2.28;1.50;;;18.70;97.60;;;;;;25965990;22;20435;-50
2023/05/03 09:59:36;;;;;;;3.95;2.78;;;16.60;97.40;;;;;;25965590;22;20434;-53
2023/05/03 10:09:41;;;;;;;5.32;4.15;;;15.50;99.90;;;;;;25937268;22;20007;-51
2023/05/03 10:19:56;;;;;;;6.30;4.45;;;15.10;99.90;;;;;;25937505;22;20003;-61
2023/05/03 10:29:58;;;;;;;5.78;4.53;;;15.10;99.90;;;;;;26007064;22;20003;-61
2023/05/03 10:40:10;;;;;;;8.68;5.90;;;14.90;99.90;;;;;;25964707;22;20011;-61
2023/05/03 10:50:14;;;;;;;7.63;5.57;;;14.00;99.90;;;;;;25969855;22;20020;-61
2023/05/03 11:00:37;;;;;;;7.20;5.05;;;13.40;99.90;;;;;;25963827;22;20011;-61
2023/05/03 11:10:40;;;;;;;6.10;4.65;;;13.30;99.90;;;;;;26006537;22;20004;-61
2023/05/03 11:20:41;;;;;;;5.72;4.60;;;14.20;99.90;;;;;;25965349;22;20000;-61
2023/05/03 11:30:45;;;;;;;5.72;5.13;;;16.30;99.90;;;;;;25963568;22;20004;-61
2023/05/03 11:40:47;;;;;;;7.13;6.25;;;17.50;99.90;;;;;;25963615;22;20069;-61
2023/05/03 11:50:56;;;;;;;6.55;5.68;;;17.20;99.90;;;;;;25964709;22;20004;-61
2023/05/03 12:00:58;;;;;;;9.43;6.28;;;15.90;99.90;;;;;;26005594;22;20105;-61
2023/05/03 12:11:00;;;;;;;5.18;4.65;;;15.30;99.90;;;;;;25968611;22;20007;-61
2023/05/03 12:21:02;;;;;;;7.35;5.78;;;14.50;99.90;;;;;;25969961;22;20000;-61
2023/05/03 12:31:04;;;;;;;7.78;4.97;;;14.10;99.90;;;;;;25969433;22;20200;-61
2023/05/03 12:41:10;;;;;;;6.00;3.75;;;14.20;99.90;;;;;;25970940;22;20004;-61
2023/05/03 12:51:13;;;;;;;4.55;3.35;;;14.80;99.90;;;;;;25969863;22;20016;-61
2023/05/03 13:01:16;;;;;;;5.78;4.80;;;15.20;99.90;;;;;;25969981;22;20017;-48
2023/05/03 13:11:18;;;;;;;5.20;3.75;;;15.00;99.90;;;;;;25914056;22;20061;-61
2023/05/03 13:21:20;;;;;;;8.68;5.70;;;14.60;99.90;;;;;;25967377;22;20000;-61
2023/05/03 13:31:23;;;;;;;8.75;6.00;;;13.50;99.90;;;;;;25967060;22;20022;-60
2023/05/03 13:41:24;;;;;;;7.38;4.97;;;12.70;99.90;;;;;;25966671;22;20008;-60
2023/05/03 13:51:27;;;;;;;5.13;4.25;;;13.00;99.90;;;;;;25966980;22;20385;-60
2023/05/03 14:01:30;;;;;;;3.92;3.20;;;12.60;99.90;;;;;;25965864;22;20000;-60
2023/05/03 14:11:32;;;;;;;3.65;2.90;;;11.80;99.90;;;;;;25938851;22;20011;-60
2023/05/03 14:21:33;;;;;;;4.18;2.83;;;11.30;99.90;;;;;;25965455;22;20385;-59
2023/05/03 14:31:35;;;;;;;2.60;2.40;;;11.30;99.90;;;;;;25964655;22;20016;-60
2023/05/03 14:41:38;;;;;;;5.50;4.40;;;11.90;99.90;;;;;;25964567;22;20020;-59
2023/05/03 14:51:40;;;;;;;4.88;3.95;;;12.00;99.90;;;;;;25964447;22;20061;-60
2023/05/03 15:01:42;;;;;;;5.35;4.10;;;12.00;99.90;;;;;;25963980;22;20030;-59
2023/05/03 15:11:44;;;;;;;5.45;4.32;;;11.60;99.90;;;;;;25965633;22;20003;-54
2023/05/03 15:21:50;;;;;;;4.57;3.97;;;11.20;99.90;;;;;;25963591;22;20003;-59
2023/05/03 15:31:51;;;;;;;7.35;3.95;;;11.30;99.90;;;;;;26005886;22;20004;-50
2023/05/03 15:41:53;;;;;;;5.55;3.60;;;11.40;99.90;;;;;;25967333;22;20011;-50
2023/05/03 15:51:55;;;;;;;4.00;3.60;;;11.10;99.90;;;;;;26014158;22;20008;-52
2023/05/03 16:01:56;;;;;;;4.38;3.83;;;10.60;99.90;;;;;;25971083;22;20063;-50
2023/05/03 16:11:58;;;;;;;4.47;3.28;;;10.30;99.90;;;;;;25970037;22;20461;-59
2023/05/03 16:22:00;;;;;;;3.40;2.85;;;10.20;99.90;;;;;;25970014;22;20004;-50
2023/05/03 16:32:02;;;;;;;2.70;1.90;;;10.10;99.90;;;;;;25968696;22;20439;-49
2023/05/03 16:42:04;;;;;;;2.30;2.10;;;10.00;99.90;;;;;;25969056;22;20007;-52
2023/05/03 16:52:08;;;;;;;2.70;2.13;;;9.90;99.90;;;;;;25968201;22;20019;-59
2023/05/03 17:02:10;;;;;;;3.20;2.78;;;9.80;99.90;;;;;;25968554;22;20376;-50
2023/05/03 17:12:12;;;;;;;4.95;2.40;;;9.80;99.90;;;;;;25969603;22;20004;-59
2023/05/03 17:22:14;;;;;;;3.92;3.47;;;9.70;99.90;;;;;;25967420;22;20370;-50
2023/05/03 17:32:16;;;;;;;3.65;3.33;;;9.80;99.90;;;;;;25967232;22;20389;-50
2023/05/03 17:42:17;;;;;;;5.60;3.63;;;9.80;99.90;;;;;;25965899;22;20443;-48
2023/05/03 17:52:19;;;;;;;4.18;3.58;;;9.80;99.90;;;;;;25966424;22;20008;-52
2023/05/03 18:02:20;;;;;;;4.00;3.60;;;9.80;99.90;;;;;;25966352;22;20012;-51
2023/05/03 18:12:22;;;;;;;4.47;4.07;;;9.80;99.90;;;;;;25965754;22;20004;-49
2023/05/03 18:22:26;;;;;;;5.80;4.80;;;9.70;99.90;;;;;;25965678;22;20003;-50
2023/05/03 18:32:28;;;;;;;5.82;4.90;;;9.50;99.90;;;;;;25937267;22;20008;-59
2023/05/03 18:42:30;;;;;;;8.02;5.70;;;9.30;99.90;;;;;;25963635;22;20027;-48
2023/05/03 18:52:32;;;;;;;5.05;4.55;;;9.20;99.90;;;;;;25964203;22;20004;-50
2023/05/03 19:02:34;;;;;;;3.70;3.30;;;8.80;99.90;;;;;;25962884;22;20050;-58
2023/05/03 19:12:36;;;;;;;4.57;3.45;;;8.30;99.90;;;;;;25963939;22;20011;-50
2023/05/03 19:22:38;;;;;;;3.40;2.50;;;7.60;99.90;;;;;;25972401;22;20003;-49
2023/05/03 19:32:39;;;;;;;3.20;2.90;;;7.30;99.90;;;;;;25971111;22;20373;-59
2023/05/03 19:42:41;;;;;;;4.03;2.45;;;7.10;99.90;;;;;;25971485;22;20079;-55
2023/05/03 19:52:43;;;;;;;3.40;2.72;;;7.00;99.90;;;;;;25970870;22;20003;-50
2023/05/03 20:02:44;;;;;;;2.67;1.92;;;7.00;99.90;;;;;;25971969;22;20051;-54
2023/05/03 20:12:46;;;;;;;2.40;1.50;;;7.00;99.90;;;;;;25972000;22;20011;-52
2023/05/03 20:22:48;;;;;;;1.50;1.13;;;6.90;99.90;;;;;;25971684;22;20018;-53
2023/05/03 20:32:50;;;;;;;1.10;1.00;;;7.00;99.90;;;;;;25969504;22;20007;-61
2023/05/03 20:42:52;;;;;;;1.30;0.80;;;7.30;99.90;;;;;;25971328;22;20081;-53
2023/05/03 20:52:55;;;;;;;2.70;0.70;;;7.50;99.90;;;;;;25938095;22;20011;-59
2023/05/03 21:02:56;;;;;;;0.80;0.50;;;7.80;99.90;;;;;;25966653;22;20509;-59
2023/05/03 21:12:58;;;;;;;1.02;0.60;;;7.80;99.90;;;;;;25966806;22;20101;-58
2023/05/03 21:23:00;;;;;;;0.50;0.38;;;7.90;99.90;;;;;;25966334;22;20007;-49
2023/05/03 21:33:03;;;;;;;0.45;0.40;;;7.80;99.90;;;;;;25967361;22;20097;-58
2023/05/03 21:43:07;;;;;;;2.05;0.63;;;7.90;99.90;;;;;;25966528;22;20008;-59
2023/05/03 21:53:09;;;;;;;0.88;0.50;;;7.90;99.90;;;;;;25967862;22;20012;-50
2023/05/03 22:03:13;;;;;;;0.30;0.30;;;7.90;99.90;;;;;;25965882;22;20007;-57
2023/05/03 22:13:16;;;;;;;0.68;0.50;;;7.90;99.90;;;;;;25965399;22;20514;-47
2023/05/03 22:23:18;;;;;;;1.70;0.50;;;8.00;99.90;;;;;;25965307;22;20003;-58
2023/05/03 22:33:20;;;;;;;0.63;0.35;;;8.00;99.90;;;;;;25964523;22;20000;-51
2023/05/03 22:43:22;;;;;;;0.40;0.40;;;7.90;99.90;;;;;;25937202;22;20022;-49
2023/05/03 22:53:24;;;;;;;0.50;0.50;;;7.80;99.90;;;;;;25965615;22;20012;-59
2023/05/03 23:03:26;;;;;;;0.63;0.50;;;7.70;99.90;;;;;;25964328;22;20014;-59
2023/05/03 23:13:28;;;;;;;0.80;0.50;;;7.40;99.90;;;;;;25965464;22;20019;-52
2023/05/03 23:23:29;;;;;;;0.45;0.40;;;7.40;99.90;;;;;;25964387;22;20053;-52
2023/05/03 23:33:31;;;;;;;0.60;0.40;;;7.50;99.90;;;;;;25963746;22;20000;-50
2023/05/03 23:43:32;;;;;;;0.90;0.50;;;7.40;99.90;;;;;;25963734;22;20007;-51
2023/05/03 23:53:34;;;;;;;0.52;0.30;;;7.20;99.90;;;;;;25963553;22;20004;-51
